Time;durP1;ratioP1;P1;durP2;ratioP2;P2;SDS_P1;SDS_P2;PMS_P1;PMS_P2;Temp;Humidity;BMP_temperature;BMP_pressure;BME280_temperature;BME280_humidity;BME280_pressure;Samples;Min_cycle;Max_cycle;Signal;HPM_P1;HPM_P2
2021/06/06 00:00:28;;;;;;;1.35;1.00;;;;;;;-148.58;100.00;55229.56;4992937;28;20022;-63
2021/06/06 00:02:54;;;;;;;0.93;0.80;;;;;;;-148.58;100.00;55229.56;4992651;28;20034;-62
2021/06/06 00:05:19;;;;;;;1.15;0.80;;;;;;;-148.58;100.00;55229.56;4991675;28;20081;-62
2021/06/06 00:07:45;;;;;;;1.40;0.98;;;;;;;-148.58;100.00;55229.56;4992739;28;20405;-63
2021/06/06 00:10:11;;;;;;;2.25;1.20;;;;;;;-148.58;100.00;55229.56;4992872;28;20058;-64
2021/06/06 00:12:37;;;;;;;1.83;1.25;;;;;;;-148.58;100.00;55229.56;4992690;28;20073;-63
2021/06/06 00:15:11;;;;;;;3.72;1.00;;;;;;;-148.58;100.00;55229.56;4992869;28;20034;-63
2021/06/06 00:17:37;;;;;;;1.08;0.98;;;;;;;-148.58;100.00;55229.56;4992407;28;20033;-63
2021/06/06 00:20:05;;;;;;;2.22;0.95;;;;;;;-148.58;100.00;55229.56;4992812;28;20023;-63
2021/06/06 00:22:31;;;;;;;1.58;0.90;;;;;;;-148.58;100.00;55229.56;4974951;28;20050;-63
2021/06/06 00:24:56;;;;;;;2.13;1.00;;;;;;;-148.58;100.00;55229.56;4992925;28;20113;-65
2021/06/06 00:27:23;;;;;;;1.95;1.10;;;;;;;-148.58;100.00;55229.56;4992693;28;20022;-64
2021/06/06 00:29:48;;;;;;;1.63;0.90;;;;;;;-148.58;100.00;55229.56;4992516;28;20026;-62
2021/06/06 00:32:14;;;;;;;1.58;1.00;;;;;;;-148.58;100.00;55229.56;4992731;28;20053;-62
2021/06/06 00:34:42;;;;;;;1.48;1.00;;;;;;;-148.58;100.00;55229.56;4992477;28;20026;-62
2021/06/06 00:37:07;;;;;;;1.42;1.00;;;;;;;-148.58;100.00;55229.56;4992736;28;20355;-64
2021/06/06 00:39:32;;;;;;;2.78;1.20;;;;;;;-148.58;100.00;55229.56;4992492;28;20033;-63
2021/06/06 00:42:00;;;;;;;2.40;1.00;;;;;;;-148.58;100.00;55229.56;4992633;28;20033;-64
2021/06/06 00:44:26;;;;;;;2.28;1.10;;;;;;;-148.58;100.00;55229.56;4992642;28;20025;-63
2021/06/06 00:46:52;;;;;;;2.03;1.08;;;;;;;-148.58;100.00;55229.56;4995779;28;20260;-64
2021/06/06 00:49:18;;;;;;;1.90;1.00;;;;;;;-148.58;100.00;55229.56;4996075;28;20370;-62
2021/06/06 00:51:58;;;;;;;1.75;1.23;;;;;;;-148.58;100.00;55229.56;4996078;28;20060;-63
2021/06/06 00:54:30;;;;;;;1.70;1.10;;;;;;;-148.58;100.00;55229.56;4996245;28;20036;-63
2021/06/06 00:57:06;;;;;;;2.13;1.30;;;;;;;-148.58;100.00;55229.56;4995925;28;20390;-63
2021/06/06 00:59:35;;;;;;;1.67;1.08;;;;;;;-148.58;100.00;55229.56;4995954;28;20302;-63
2021/06/06 01:02:00;;;;;;;2.13;0.90;;;;;;;-148.58;100.00;55229.56;4995990;28;20058;-63
2021/06/06 01:04:26;;;;;;;2.63;1.25;;;;;;;-148.58;100.00;55229.56;4996030;28;20065;-62
2021/06/06 01:06:53;;;;;;;2.05;0.77;;;;;;;-148.58;100.00;55229.56;4995981;28;20037;-62
2021/06/06 01:09:21;;;;;;;1.45;1.00;;;;;;;-148.58;100.00;55229.56;4995818;28;20053;-62
2021/06/06 01:12:20;;;;;;;1.35;0.90;;;;;;;-148.58;100.00;55229.56;4995647;28;20496;-63
2021/06/06 01:14:58;;;;;;;3.10;1.17;;;;;;;-148.58;100.00;55229.56;4995533;28;20022;-63
2021/06/06 01:17:45;;;;;;;1.73;0.88;;;;;;;-148.58;100.00;55229.56;4995720;28;20496;-63
2021/06/06 01:20:28;;;;;;;2.78;1.35;;;;;;;-148.58;100.00;55229.56;4995671;28;20414;-63
2021/06/06 01:23:02;;;;;;;1.15;0.85;;;;;;;-148.58;100.00;55229.56;4995246;28;20332;-64
2021/06/06 01:25:34;;;;;;;1.92;1.10;;;;;;;-148.58;100.00;55229.56;4995591;28;20018;-64
2021/06/06 01:28:12;;;;;;;1.90;0.90;;;;;;;-148.58;100.00;55229.56;4995472;28;20588;-62
2021/06/06 01:30:45;;;;;;;2.88;0.90;;;;;;;-148.58;100.00;55229.56;4995201;28;20038;-62
2021/06/06 01:33:20;;;;;;;1.75;0.88;;;;;;;-148.58;100.00;55229.56;4994149;28;20040;-62
2021/06/06 01:35:57;;;;;;;1.42;1.27;;;;;;;-148.58;100.00;55229.56;4995235;28;20038;-62
2021/06/06 01:38:29;;;;;;;1.50;1.25;;;;;;;-148.58;100.00;55229.56;4995387;28;20033;-63
2021/06/06 01:41:00;;;;;;;3.90;1.23;;;;;;;-148.58;100.00;55229.56;4995149;28;20029;-63
2021/06/06 01:43:36;;;;;;;1.30;1.05;;;;;;;-148.58;100.00;55229.56;4995223;28;20053;-63
2021/06/06 01:46:06;;;;;;;1.27;1.10;;;;;;;-148.58;100.00;55229.56;4995204;28;20026;-62
2021/06/06 01:48:36;;;;;;;1.42;1.10;;;;;;;-148.58;100.00;55229.56;4993787;28;20045;-62
2021/06/06 01:51:07;;;;;;;1.05;0.80;;;;;;;-148.58;100.00;55229.56;4995080;28;20022;-63
2021/06/06 01:53:35;;;;;;;2.33;1.00;;;;;;;-148.58;100.00;55229.56;4994878;28;20687;-63
2021/06/06 01:56:05;;;;;;;1.92;1.08;;;;;;;-148.58;100.00;55229.56;4994926;28;20073;-64
2021/06/06 01:58:31;;;;;;;1.73;0.88;;;;;;;-148.58;100.00;55229.56;4994232;28;20370;-63
2021/06/06 02:01:13;;;;;;;1.00;0.90;;;;;;;-148.58;100.00;55229.56;4994737;28;20031;-63
2021/06/06 02:03:38;;;;;;;1.85;0.80;;;;;;;-148.58;100.00;55229.56;4994609;28;20109;-63
2021/06/06 02:06:05;;;;;;;1.10;0.95;;;;;;;-148.58;100.00;55229.56;4994849;28;20101;-63
2021/06/06 02:08:33;;;;;;;1.60;0.90;;;;;;;-148.58;100.00;55229.56;4993540;28;20102;-62
2021/06/06 02:11:15;;;;;;;2.22;1.10;;;;;;;-148.58;100.00;55229.56;4994635;28;20022;-63
2021/06/06 02:13:46;;;;;;;2.13;1.10;;;;;;;-148.58;100.00;55229.56;4994818;28;20409;-63
2021/06/06 02:16:17;;;;;;;1.48;0.80;;;;;;;-148.58;100.00;55229.56;4994665;28;20065;-63
2021/06/06 02:18:43;;;;;;;1.10;1.00;;;;;;;-148.58;100.00;55229.56;4994389;28;20030;-63
2021/06/06 02:21:09;;;;;;;1.05;0.95;;;;;;;-148.58;100.00;55229.56;4994347;28;20097;-62
2021/06/06 02:23:39;;;;;;;1.70;1.15;;;;;;;-148.58;100.00;55229.56;4994277;28;20026;-62
2021/06/06 02:26:36;;;;;;;1.00;0.90;;;;;;;-148.58;100.00;55229.56;4995023;28;20029;-62
2021/06/06 02:29:26;;;;;;;1.80;0.77;;;;;;;-148.58;100.00;55229.56;4993341;28;20434;-62
2021/06/06 02:32:07;;;;;;;2.60;1.00;;;;;;;-148.58;100.00;55229.56;4976154;28;20035;-63
2021/06/06 02:34:51;;;;;;;1.92;1.23;;;;;;;-148.58;100.00;55229.56;4994216;28;20026;-63
2021/06/06 02:37:41;;;;;;;2.60;1.15;;;;;;;-148.58;100.00;55229.56;4994458;28;20373;-63
2021/06/06 02:40:32;;;;;;;1.38;1.00;;;;;;;-148.58;100.00;55229.56;4994207;28;20073;-63
2021/06/06 02:43:14;;;;;;;1.20;1.10;;;;;;;-148.58;100.00;55229.56;4993799;28;20050;-63
2021/06/06 02:45:41;;;;;;;1.45;1.20;;;;;;;-148.58;100.00;55229.56;4993900;28;20113;-64
2021/06/06 02:48:18;;;;;;;2.22;0.90;;;;;;;-148.58;100.00;55229.56;4994070;28;20030;-64
2021/06/06 02:50:45;;;;;;;1.45;1.00;;;;;;;-148.58;100.00;55229.56;4993687;28;20076;-63
2021/06/06 02:53:21;;;;;;;1.55;1.02;;;;;;;-148.58;100.00;55229.56;4993763;28;20045;-63
2021/06/06 02:55:50;;;;;;;1.55;1.08;;;;;;;-148.58;100.00;55229.56;4993737;28;20018;-63
2021/06/06 02:58:28;;;;;;;1.20;1.05;;;;;;;-148.58;100.00;55229.56;4993901;28;20023;-63
2021/06/06 03:00:58;;;;;;;1.08;0.98;;;;;;;-148.58;100.00;55229.56;4993598;28;20058;-64
2021/06/06 03:03:28;;;;;;;1.10;1.00;;;;;;;-148.58;100.00;55229.56;4993697;28;20026;-64
2021/06/06 03:05:56;;;;;;;1.50;0.82;;;;;;;-148.58;100.00;55229.56;4993629;28;20038;-63
2021/06/06 03:08:22;;;;;;;1.67;0.85;;;;;;;-148.58;100.00;55229.56;4993758;28;20066;-62
2021/06/06 03:10:49;;;;;;;3.03;0.70;;;;;;;-148.58;100.00;55229.56;4993179;28;20300;-63
2021/06/06 03:13:26;;;;;;;1.38;1.08;;;;;;;-148.58;100.00;55229.56;4993537;28;20113;-63
2021/06/06 03:15:55;;;;;;;1.63;0.93;;;;;;;-148.58;100.00;55229.56;4993407;28;20077;-63
2021/06/06 03:18:22;;;;;;;2.45;1.40;;;;;;;-148.58;100.00;55229.56;4993608;28;20482;-64
2021/06/06 03:20:51;;;;;;;1.33;1.00;;;;;;;-148.58;100.00;55229.56;4993203;28;20023;-64
2021/06/06 03:23:23;;;;;;;3.92;1.20;;;;;;;-148.58;100.00;55229.56;4993313;28;20145;-62
2021/06/06 03:25:59;;;;;;;2.70;1.13;;;;;;;-148.58;100.00;55229.56;4993163;28;20121;-62
2021/06/06 03:28:28;;;;;;;1.27;0.90;;;;;;;-148.58;100.00;55229.56;4993470;28;20058;-62
2021/06/06 03:30:58;;;;;;;1.75;1.27;;;;;;;-148.58;100.00;55229.56;4992937;28;20117;-63
2021/06/06 03:33:43;;;;;;;3.03;1.15;;;;;;;-148.58;100.00;55229.56;4993260;28;20371;-63
2021/06/06 03:36:16;;;;;;;2.63;1.23;;;;;;;-148.58;100.00;55229.56;4993324;28;20026;-64
2021/06/06 03:38:41;;;;;;;2.45;1.02;;;;;;;-148.58;100.00;55229.56;4992668;28;20030;-64
2021/06/06 03:41:07;;;;;;;1.33;1.00;;;;;;;-148.58;100.00;55229.56;4993234;28;20418;-63
2021/06/06 03:43:33;;;;;;;1.90;0.90;;;;;;;-148.58;100.00;55229.56;4993084;28;20063;-63
2021/06/06 03:45:59;;;;;;;2.08;0.93;;;;;;;-148.58;100.00;55229.56;4993034;28;20080;-63
2021/06/06 03:48:26;;;;;;;1.20;0.90;;;;;;;-148.58;100.00;55229.56;4993209;28;20026;-63
2021/06/06 03:50:52;;;;;;;1.10;1.00;;;;;;;-148.58;100.00;55229.56;4992730;28;20031;-63
2021/06/06 03:53:22;;;;;;;1.50;0.95;;;;;;;-148.58;100.00;55229.56;4992993;28;20527;-62
2021/06/06 03:55:48;;;;;;;1.17;1.00;;;;;;;-148.58;100.00;55229.56;4992837;28;20026;-63
2021/06/06 03:58:14;;;;;;;3.38;1.92;;;;;;;-148.58;100.00;55229.56;4993054;28;20134;-63
2021/06/06 04:00:43;;;;;;;2.00;1.00;;;;;;;-148.58;100.00;55229.56;4991493;28;20056;-63
2021/06/06 04:03:10;;;;;;;2.05;1.23;;;;;;;-148.58;100.00;55229.56;4993002;28;20052;-64
2021/06/06 04:05:35;;;;;;;1.20;0.80;;;;;;;-148.58;100.00;55229.56;4992852;28;20512;-64
2021/06/06 04:08:01;;;;;;;1.83;1.08;;;;;;;-148.58;100.00;55229.56;4992992;28;20030;-63
2021/06/06 04:10:27;;;;;;;1.52;1.10;;;;;;;-148.58;100.00;55229.56;4992934;28;20023;-62
2021/06/06 04:12:52;;;;;;;3.75;1.17;;;;;;;-148.58;100.00;55229.56;4992710;28;20026;-64
2021/06/06 04:15:18;;;;;;;1.42;1.02;;;;;;;-148.58;100.00;55229.56;4992923;28;20462;-63
2021/06/06 04:17:44;;;;;;;1.05;1.05;;;;;;;-148.58;100.00;55229.56;4992498;28;20041;-64
2021/06/06 04:20:11;;;;;;;1.00;1.00;;;;;;;-148.58;100.00;55229.56;4976305;28;20030;-63
2021/06/06 04:22:37;;;;;;;2.38;1.20;;;;;;;-148.58;100.00;55229.56;4996320;28;20409;-63
2021/06/06 04:25:05;;;;;;;1.60;0.98;;;;;;;-148.58;100.00;55229.56;4996648;28;20034;-63
2021/06/06 04:27:30;;;;;;;1.20;1.02;;;;;;;-148.58;100.00;55229.56;4996503;28;20469;-63
2021/06/06 04:29:55;;;;;;;1.67;1.40;;;;;;;-148.58;100.00;55229.56;4996440;28;20053;-64
2021/06/06 04:32:21;;;;;;;2.55;0.90;;;;;;;-148.58;100.00;55229.56;4996704;28;20034;-62
2021/06/06 04:34:48;;;;;;;2.80;1.00;;;;;;;-148.58;100.00;55229.56;4996270;28;20470;-62
2021/06/06 04:37:15;;;;;;;1.40;0.95;;;;;;;-148.58;100.00;55229.56;4996448;28;20073;-62
2021/06/06 04:39:41;;;;;;;1.33;1.00;;;;;;;-148.58;100.00;55229.56;4996296;28;20308;-64
2021/06/06 04:42:09;;;;;;;0.75;0.75;;;;;;;-148.58;100.00;55229.56;4996461;28;20034;-64
2021/06/06 04:44:36;;;;;;;1.35;1.00;;;;;;;-148.58;100.00;55229.56;4996184;28;20434;-63
2021/06/06 04:47:03;;;;;;;2.03;0.70;;;;;;;-148.58;100.00;55229.56;4996281;28;20057;-62
2021/06/06 04:49:29;;;;;;;1.35;0.75;;;;;;;-148.58;100.00;55229.56;4996101;28;20054;-63
2021/06/06 04:51:54;;;;;;;1.05;0.82;;;;;;;-148.58;100.00;55229.56;4996073;28;20064;-63
2021/06/06 04:54:19;;;;;;;2.05;0.80;;;;;;;-148.58;100.00;55229.56;4996314;28;20053;-63
2021/06/06 04:56:45;;;;;;;0.65;0.65;;;;;;;-148.58;100.00;55229.56;4994592;28;20038;-62
2021/06/06 04:59:12;;;;;;;2.17;1.13;;;;;;;-148.58;100.00;55229.56;4996087;28;20474;-62
2021/06/06 05:01:37;;;;;;;2.03;0.82;;;;;;;-148.58;100.00;55229.56;4995878;28;20052;-62
2021/06/06 05:04:02;;;;;;;2.47;0.68;;;;;;;-148.58;100.00;55229.56;4995969;28;20054;-63
2021/06/06 05:06:27;;;;;;;1.48;0.90;;;;;;;-148.58;100.00;55229.56;4995957;28;20037;-63
2021/06/06 05:08:53;;;;;;;2.55;1.25;;;;;;;-148.58;100.00;55229.56;4995651;28;20049;-64
2021/06/06 05:11:18;;;;;;;1.33;0.98;;;;;;;-148.58;100.00;55229.56;4995781;28;20096;-62
2021/06/06 05:13:43;;;;;;;1.17;0.60;;;;;;;-148.58;100.00;55229.56;4995647;28;20034;-62
2021/06/06 05:16:09;;;;;;;1.50;0.82;;;;;;;-148.58;100.00;55229.56;4995821;28;20029;-62
2021/06/06 05:18:35;;;;;;;1.10;0.80;;;;;;;-148.58;100.00;55229.56;4995542;28;20500;-63
2021/06/06 05:21:01;;;;;;;1.38;0.73;;;;;;;-148.58;100.00;55229.56;4995603;28;20022;-64
2021/06/06 05:23:29;;;;;;;1.17;0.75;;;;;;;-148.58;100.00;55229.56;4995492;28;20081;-62
2021/06/06 05:25:55;;;;;;;1.83;1.17;;;;;;;-148.58;100.00;55229.56;4995384;28;20105;-63
2021/06/06 05:28:24;;;;;;;2.13;0.73;;;;;;;-148.58;100.00;55229.56;4995669;28;20109;-63
2021/06/06 05:30:50;;;;;;;1.67;0.82;;;;;;;-148.58;100.00;55229.56;4995184;28;20023;-63
2021/06/06 05:33:15;;;;;;;2.08;0.57;;;;;;;-148.58;100.00;55229.56;4977052;28;20377;-64
2021/06/06 05:35:41;;;;;;;1.60;0.60;;;;;;;-148.58;100.00;55229.56;4995258;28;20110;-64
2021/06/06 05:38:09;;;;;;;1.35;1.25;;;;;;;-148.58;100.00;55229.56;4995363;28;20026;-62
2021/06/06 05:40:37;;;;;;;1.67;1.25;;;;;;;-148.58;100.00;55229.56;4995161;28;20027;-63
2021/06/06 05:43:03;;;;;;;2.80;1.00;;;;;;;-148.58;100.00;55229.56;4995586;28;20423;-63
2021/06/06 05:45:29;;;;;;;2.05;1.08;;;;;;;-148.58;100.00;55229.56;4995203;28;20033;-63
2021/06/06 05:47:54;;;;;;;2.60;1.05;;;;;;;-148.58;100.00;55229.56;4993675;28;20026;-63
2021/06/06 05:50:24;;;;;;;2.00;0.98;;;;;;;-148.58;100.00;55229.56;4995142;28;20077;-62
2021/06/06 05:52:50;;;;;;;2.10;0.70;;;;;;;-148.58;100.00;55229.56;4994911;28;20354;-62
2021/06/06 05:55:18;;;;;;;2.25;0.95;;;;;;;-148.58;100.00;55229.56;4995101;28;20032;-63
2021/06/06 05:57:43;;;;;;;2.63;1.00;;;;;;;-148.58;100.00;55229.56;4994914;28;20026;-63
2021/06/06 06:00:13;;;;;;;3.67;1.00;;;;;;;-148.58;100.00;55229.56;4994993;28;20015;-63
2021/06/06 06:02:38;;;;;;;2.75;1.05;;;;;;;-148.58;100.00;55229.56;4994716;28;20402;-62
2021/06/06 06:05:05;;;;;;;2.08;0.77;;;;;;;-148.58;100.00;55229.56;4994890;28;20036;-62
2021/06/06 06:07:30;;;;;;;1.73;1.00;;;;;;;-148.58;100.00;55229.56;4993496;28;20029;-63
2021/06/06 06:09:56;;;;;;;2.38;1.10;;;;;;;-148.58;100.00;55229.56;4994646;28;20513;-63
2021/06/06 06:12:21;;;;;;;3.10;1.17;;;;;;;-148.58;100.00;55229.56;4995098;28;20049;-63
2021/06/06 06:14:47;;;;;;;1.35;0.88;;;;;;;-148.58;100.00;55229.56;4993201;28;20484;-62
2021/06/06 06:17:12;;;;;;;2.85;1.00;;;;;;;-148.58;100.00;55229.56;4994671;28;20022;-62
2021/06/06 06:19:37;;;;;;;2.13;0.82;;;;;;;-148.58;100.00;55229.56;4994374;28;20026;-62
2021/06/06 06:22:03;;;;;;;2.05;1.00;;;;;;;-148.58;100.00;55229.56;4994434;28;20501;-64
2021/06/06 06:24:28;;;;;;;1.15;0.82;;;;;;;-148.58;100.00;55229.56;4994523;28;20030;-64
2021/06/06 06:26:55;;;;;;;2.80;0.98;;;;;;;-148.58;100.00;55229.56;4994269;28;20525;-64
2021/06/06 06:29:22;;;;;;;2.72;1.00;;;;;;;-148.58;100.00;55229.56;4994344;28;20482;-62
2021/06/06 06:31:47;;;;;;;1.30;0.90;;;;;;;-148.58;100.00;55229.56;4994329;28;20045;-62
2021/06/06 06:34:13;;;;;;;4.25;1.67;;;;;;;-148.58;100.00;55229.56;4994415;28;20061;-62
2021/06/06 06:36:38;;;;;;;1.58;0.82;;;;;;;-148.58;100.00;55229.56;4994089;28;20116;-64
2021/06/06 06:39:06;;;;;;;2.33;1.10;;;;;;;-148.58;100.00;55229.56;4994251;28;20065;-63
2021/06/06 06:41:32;;;;;;;2.22;0.68;;;;;;;-148.58;100.00;55229.56;4976623;28;20029;-63
2021/06/06 06:43:59;;;;;;;1.70;0.65;;;;;;;-148.58;100.00;55229.56;4993809;28;20413;-63
2021/06/06 06:46:25;;;;;;;2.95;0.82;;;;;;;-148.58;100.00;55229.56;4994182;28;20052;-62
2021/06/06 06:48:51;;;;;;;1.55;0.93;;;;;;;-148.58;100.00;55229.56;4993788;28;20044;-63
2021/06/06 06:51:17;;;;;;;2.28;0.93;;;;;;;-148.58;100.00;55229.56;4993904;28;20030;-63
2021/06/06 06:53:43;;;;;;;1.58;0.80;;;;;;;-148.58;100.00;55229.56;4993706;28;20030;-64
2021/06/06 06:56:08;;;;;;;1.73;0.73;;;;;;;-148.58;100.00;55229.56;4993991;28;20069;-62
2021/06/06 06:58:34;;;;;;;2.10;0.68;;;;;;;-148.58;100.00;55229.56;4993793;28;20072;-62
2021/06/06 07:00:59;;;;;;;3.50;1.00;;;;;;;-148.58;100.00;55229.56;4993769;28;20452;-63
2021/06/06 07:03:30;;;;;;;1.88;0.85;;;;;;;-148.58;100.00;55229.56;4993787;28;20030;-62
2021/06/06 07:05:58;;;;;;;2.20;1.10;;;;;;;-148.58;100.00;55229.56;4993617;28;20041;-63
2021/06/06 07:08:27;;;;;;;0.95;0.82;;;;;;;-148.58;100.00;55229.56;4993813;28;20080;-62
2021/06/06 07:10:53;;;;;;;3.08;0.65;;;;;;;-148.58;100.00;55229.56;4992116;28;20478;-62
2021/06/06 07:13:20;;;;;;;1.25;0.85;;;;;;;-148.58;100.00;55229.56;4993608;28;20030;-62
2021/06/06 07:15:45;;;;;;;1.65;0.90;;;;;;;-148.58;100.00;55229.56;4993434;28;20480;-63
2021/06/06 07:18:18;;;;;;;1.13;0.73;;;;;;;-148.58;100.00;55229.56;4993709;28;20109;-64
2021/06/06 07:20:43;;;;;;;1.25;0.68;;;;;;;-148.58;100.00;55229.56;4993277;28;20474;-63
2021/06/06 07:23:11;;;;;;;1.95;0.80;;;;;;;-148.58;100.00;55229.56;4993292;28;20050;-62
2021/06/06 07:25:37;;;;;;;1.85;0.85;;;;;;;-148.58;100.00;55229.56;4993222;28;20022;-62
2021/06/06 07:28:05;;;;;;;1.33;0.70;;;;;;;-148.58;100.00;55229.56;4993404;28;20033;-63
2021/06/06 07:30:35;;;;;;;0.95;0.52;;;;;;;-148.58;100.00;55229.56;4993288;28;20030;-62
2021/06/06 07:33:01;;;;;;;1.10;0.57;;;;;;;-148.58;100.00;55229.56;4993307;28;20076;-64
2021/06/06 07:35:29;;;;;;;2.28;0.60;;;;;;;-148.58;100.00;55229.56;4993207;28;20038;-63
2021/06/06 07:37:56;;;;;;;1.30;0.70;;;;;;;-148.58;100.00;55229.56;4993105;28;20446;-62
2021/06/06 07:40:25;;;;;;;1.00;0.93;;;;;;;-148.58;100.00;55229.56;4993342;28;20029;-62
2021/06/06 07:42:50;;;;;;;2.67;0.82;;;;;;;-148.58;100.00;55229.56;4992996;28;20481;-62
2021/06/06 07:45:17;;;;;;;0.80;0.60;;;;;;;-148.58;100.00;55229.56;4993175;28;20041;-62
2021/06/06 07:47:43;;;;;;;0.93;0.50;;;;;;;-148.58;100.00;55229.56;4993060;28;20061;-64
2021/06/06 07:50:12;;;;;;;0.73;0.60;;;;;;;-148.58;100.00;55229.56;4993069;28;20446;-62
2021/06/06 07:52:37;;;;;;;3.30;1.20;;;;;;;-148.58;100.00;55229.56;4992957;28;20479;-62
2021/06/06 07:55:07;;;;;;;1.23;0.57;;;;;;;-148.58;100.00;55229.56;4992493;28;20535;-63
2021/06/06 07:57:33;;;;;;;0.60;0.50;;;;;;;-148.58;100.00;55229.56;4992972;28;20482;-63
2021/06/06 07:59:58;;;;;;;1.95;0.70;;;;;;;-148.58;100.00;55229.56;4993235;28;20062;-62
2021/06/06 08:02:23;;;;;;;1.67;0.75;;;;;;;-148.58;100.00;55229.56;4992992;28;20068;-62
2021/06/06 08:04:49;;;;;;;0.80;0.60;;;;;;;-148.58;100.00;55229.56;4992819;28;20378;-62
2021/06/06 08:07:14;;;;;;;1.10;0.70;;;;;;;-148.58;100.00;55229.56;4992910;28;20023;-63
2021/06/06 08:09:39;;;;;;;2.22;0.60;;;;;;;-148.58;100.00;55229.56;4992353;28;20023;-62
2021/06/06 08:12:05;;;;;;;0.73;0.73;;;;;;;-148.58;100.00;55229.56;4992287;28;20026;-62
2021/06/06 08:14:31;;;;;;;2.22;0.77;;;;;;;-148.58;100.00;55229.56;4973378;28;20030;-62
2021/06/06 08:16:56;;;;;;;2.65;0.90;;;;;;;-148.58;100.00;55229.56;4980746;28;20378;-62
2021/06/06 08:19:21;;;;;;;1.65;0.82;;;;;;;-148.58;100.00;55229.56;4992840;28;20101;-62
2021/06/06 08:21:48;;;;;;;1.73;0.82;;;;;;;-148.58;100.00;55229.56;4992513;28;20418;-63
2021/06/06 08:24:14;;;;;;;1.88;0.85;;;;;;;-148.58;100.00;55229.56;4991582;28;20101;-62
2021/06/06 08:26:39;;;;;;;2.28;0.93;;;;;;;-148.58;100.00;55229.56;4992508;28;20053;-63
2021/06/06 08:29:06;;;;;;;2.33;0.85;;;;;;;-148.58;100.00;55229.56;4992828;28;20022;-62
2021/06/06 08:31:34;;;;;;;2.15;0.80;;;;;;;-148.58;100.00;55229.56;4992604;28;20029;-61
2021/06/06 08:34:00;;;;;;;2.10;0.85;;;;;;;-148.58;100.00;55229.56;4992728;28;20027;-62
2021/06/06 08:36:33;;;;;;;2.42;0.70;;;;;;;-148.58;100.00;55229.56;4992726;28;20062;-62
2021/06/06 08:39:00;;;;;;;1.50;0.70;;;;;;;-148.58;100.00;55229.56;4992522;28;20030;-62
2021/06/06 08:41:40;;;;;;;0.68;0.68;;;;;;;-148.58;100.00;55229.56;4992602;28;20476;-62
2021/06/06 08:44:22;;;;;;;2.25;0.95;;;;;;;-148.58;100.00;55229.56;4992621;28;20390;-62
2021/06/06 08:47:06;;;;;;;3.85;0.98;;;;;;;-148.58;100.00;55229.56;4992418;28;20073;-63
2021/06/06 08:49:53;;;;;;;0.85;0.80;;;;;;;-148.58;100.00;55229.56;4992434;28;20026;-62
2021/06/06 08:52:28;;;;;;;3.47;0.88;;;;;;;-148.58;100.00;55229.56;4992503;28;20431;-62
2021/06/06 08:55:08;;;;;;;3.15;0.63;;;;;;;-148.58;100.00;55229.56;4992339;28;20065;-62
2021/06/06 08:57:48;;;;;;;1.42;0.70;;;;;;;-148.58;100.00;55229.56;4992445;28;20023;-63
2021/06/06 09:00:31;;;;;;;1.98;1.02;;;;;;;-148.58;100.00;55229.56;4992589;28;20092;-63
2021/06/06 09:03:04;;;;;;;1.00;0.68;;;;;;;-148.58;100.00;55229.56;4992314;28;20018;-65
2021/06/06 09:05:36;;;;;;;2.90;0.68;;;;;;;-148.58;100.00;55229.56;4992401;28;20069;-63
2021/06/06 09:08:04;;;;;;;0.93;0.75;;;;;;;-148.58;100.00;55229.56;4995913;28;20410;-62
2021/06/06 09:10:34;;;;;;;2.17;0.85;;;;;;;-148.58;100.00;55229.56;4995847;28;20030;-62
2021/06/06 09:13:01;;;;;;;1.98;0.70;;;;;;;-148.58;100.00;55229.56;4995811;28;20026;-62
2021/06/06 09:15:27;;;;;;;1.40;0.68;;;;;;;-148.58;100.00;55229.56;4995790;28;20393;-63
2021/06/06 09:17:58;;;;;;;1.08;0.65;;;;;;;-148.58;100.00;55229.56;4995669;28;20034;-63
2021/06/06 09:20:36;;;;;;;2.85;0.95;;;;;;;-148.58;100.00;55229.56;4995755;28;20026;-61
2021/06/06 09:23:27;;;;;;;4.00;0.80;;;;;;;-148.58;100.00;55229.56;4994321;28;20445;-62
2021/06/06 09:26:18;;;;;;;1.73;0.60;;;;;;;-148.58;100.00;55229.56;4995757;28;20026;-62
2021/06/06 09:28:48;;;;;;;1.58;0.90;;;;;;;-148.58;100.00;55229.56;4984657;28;20042;-62
2021/06/06 09:31:16;;;;;;;2.10;0.82;;;;;;;-148.58;100.00;55229.56;4995501;28;20125;-62
2021/06/06 09:33:47;;;;;;;1.33;0.60;;;;;;;-148.58;100.00;55229.56;4994064;28;20037;-63
2021/06/06 09:36:20;;;;;;;3.20;0.73;;;;;;;-148.58;100.00;55229.56;4995557;28;20239;-63
2021/06/06 09:38:47;;;;;;;2.15;0.88;;;;;;;-148.58;100.00;55229.56;4995150;28;20022;-62
2021/06/06 09:41:15;;;;;;;1.67;0.90;;;;;;;-148.58;100.00;55229.56;4995324;28;20376;-62
2021/06/06 09:43:41;;;;;;;1.52;0.70;;;;;;;-148.58;100.00;55229.56;4995208;28;20521;-62
2021/06/06 09:46:15;;;;;;;1.85;0.70;;;;;;;-148.58;100.00;55229.56;4995293;28;20037;-62
2021/06/06 09:48:43;;;;;;;2.67;0.82;;;;;;;-148.58;100.00;55229.56;4994941;28;20042;-62
2021/06/06 09:51:37;;;;;;;1.35;0.60;;;;;;;-148.58;100.00;55229.56;4995158;28;20026;-63
2021/06/06 09:54:33;;;;;;;1.38;0.60;;;;;;;-148.58;100.00;55229.56;4915799;29;20051;-63
2021/06/06 09:57:03;;;;;;;2.25;0.77;;;;;;;-148.58;100.00;55229.56;4912506;29;20409;-62
2021/06/06 09:59:33;;;;;;;0.98;0.50;;;;;;;-148.58;100.00;55229.56;4915668;29;20028;-64
2021/06/06 10:02:13;;;;;;;0.82;0.40;;;;;;;-148.58;100.00;55229.56;4915550;29;20072;-63
2021/06/06 10:04:41;;;;;;;1.05;0.65;;;;;;;-148.58;100.00;55229.56;4915444;29;20480;-62
2021/06/06 10:07:25;;;;;;;0.60;0.60;;;;;;;-148.58;100.00;55229.56;4915698;29;20032;-62
2021/06/06 10:09:53;;;;;;;0.95;0.52;;;;;;;-148.58;100.00;55229.56;4915471;29;20111;-63
2021/06/06 10:12:34;;;;;;;1.05;0.40;;;;;;;-148.58;100.00;55229.56;4915687;29;20039;-63
2021/06/06 10:15:05;;;;;;;1.73;0.68;;;;;;;-148.58;100.00;55229.56;4915597;29;20071;-63
2021/06/06 10:17:43;;;;;;;2.25;0.68;;;;;;;-148.58;100.00;55229.56;4914956;29;20036;-62
2021/06/06 10:20:31;;;;;;;1.23;0.60;;;;;;;-148.58;100.00;55229.56;4915492;29;20024;-62
2021/06/06 10:23:06;;;;;;;1.88;0.60;;;;;;;-148.58;100.00;55229.56;4915170;29;20536;-62
2021/06/06 10:25:50;;;;;;;2.83;0.90;;;;;;;-148.58;100.00;55229.56;4915347;29;20036;-62
2021/06/06 10:28:22;;;;;;;2.15;0.80;;;;;;;-148.58;100.00;55229.56;4915487;29;20098;-62
2021/06/06 10:30:57;;;;;;;2.00;0.60;;;;;;;-148.58;100.00;55229.56;4965679;28;20045;-62
2021/06/06 10:33:30;;;;;;;1.38;0.80;;;;;;;-148.58;100.00;55229.56;4976988;28;20086;-63
2021/06/06 10:35:58;;;;;;;1.08;0.65;;;;;;;-148.58;100.00;55229.56;4994311;28;20455;-64
2021/06/06 10:38:24;;;;;;;1.35;0.63;;;;;;;-148.58;100.00;55229.56;4994388;28;20112;-62
2021/06/06 10:40:53;;;;;;;1.85;0.80;;;;;;;-148.58;100.00;55229.56;4994144;28;20053;-62
2021/06/06 10:43:40;;;;;;;1.45;0.70;;;;;;;-148.58;100.00;55229.56;4993000;28;20100;-62
2021/06/06 10:46:15;;;;;;;1.58;0.60;;;;;;;-148.58;100.00;55229.56;4994246;28;20049;-62
2021/06/06 10:48:46;;;;;;;;;;;;;;;-148.58;100.00;55229.56;4994353;28;20030;-63
2021/06/06 10:51:24;;;;;;;1.23;0.70;;;;;;;-148.58;100.00;55229.56;4994009;28;20411;-63
2021/06/06 10:53:58;;;;;;;2.63;1.00;;;;;;;-148.58;100.00;55229.56;4993615;28;20026;-62
2021/06/06 10:56:46;;;;;;;1.33;0.50;;;;;;;-148.58;100.00;55229.56;4994056;28;20109;-61
2021/06/06 10:59:12;;;;;;;1.80;0.80;;;;;;;-148.58;100.00;55229.56;4983386;28;20038;-62
2021/06/06 11:01:44;;;;;;;2.08;0.80;;;;;;;-148.58;100.00;55229.56;4994050;28;20506;-62
2021/06/06 11:04:14;;;;;;;1.83;0.75;;;;;;;-148.58;100.00;55229.56;4993890;28;20097;-62
2021/06/06 11:06:46;;;;;;;1.45;0.70;;;;;;;-148.58;100.00;55229.56;4993608;28;20462;-62
2021/06/06 11:09:31;;;;;;;1.30;0.80;;;;;;;-148.58;100.00;55229.56;4993803;28;20045;-63
2021/06/06 11:12:14;;;;;;;3.17;1.00;;;;;;;-148.58;100.00;55229.56;4993706;28;20034;-63
2021/06/06 11:14:49;;;;;;;2.20;0.70;;;;;;;-148.58;100.00;55229.56;4993521;28;20033;-62
2021/06/06 11:17:33;;;;;;;2.00;0.70;;;;;;;-148.58;100.00;55229.56;4993593;28;20029;-62
2021/06/06 11:20:32;;;;;;;1.42;0.77;;;;;;;-148.58;100.00;55229.56;4993543;28;20026;-61
2021/06/06 11:22:58;;;;;;;2.75;0.70;;;;;;;-148.58;100.00;55229.56;4993436;28;20065;-62